createdAt,value
2022-10-01T00:01:20.286Z,8.27
2022-10-01T00:03:48.615Z,8.27
2022-10-01T00:06:18.092Z,8.37
2022-10-01T00:08:48.148Z,8.31
2022-10-01T00:11:18.425Z,8.35
2022-10-01T00:13:46.401Z,8.32
2022-10-01T00:16:17.509Z,8.42
2022-10-01T00:18:46.540Z,8.28
2022-10-01T00:21:15.831Z,8.31
2022-10-01T00:23:43.773Z,8.37
2022-10-01T00:26:14.881Z,8.39
2022-10-01T00:28:45.231Z,8.33
2022-10-01T00:31:14.216Z,8.30
2022-10-01T00:33:42.080Z,8.27
2022-10-01T00:36:10.788Z,8.33
2022-10-01T00:38:40.254Z,8.34
2022-10-01T00:41:08.408Z,8.38
2022-10-01T00:43:37.669Z,8.41
2022-10-01T00:46:14.081Z,8.41
2022-10-01T00:48:49.266Z,8.36
2022-10-01T00:51:16.826Z,8.33
2022-10-01T00:53:46.026Z,8.25
2022-10-01T00:56:13.560Z,8.30
2022-10-01T00:58:41.081Z,8.31
2022-10-01T01:01:09.995Z,8.32
2022-10-01T01:03:37.907Z,8.24
2022-10-01T01:06:09.641Z,8.22
2022-10-01T01:08:37.156Z,8.18
2022-10-01T01:11:08.695Z,8.20
2022-10-01T01:13:39.113Z,8.23
2022-10-01T01:16:12.638Z,8.35
2022-10-01T01:18:43.908Z,8.41
2022-10-01T01:21:21.682Z,8.38
2022-10-01T01:24:12.142Z,8.33
2022-10-01T01:26:50.049Z,8.34
2022-10-01T01:29:23.362Z,8.25
2022-10-01T01:31:51.049Z,8.25
2022-10-01T01:34:21.946Z,8.37
2022-10-01T01:36:54.205Z,8.42
2022-10-01T01:39:22.973Z,8.30
2022-10-01T01:41:52.429Z,8.27
2022-10-01T01:44:25.173Z,8.36
2022-10-01T01:46:55.036Z,8.37
2022-10-01T01:49:22.558Z,8.42
2022-10-01T01:51:53.110Z,8.41
2022-10-01T01:54:21.390Z,8.38
2022-10-01T01:56:49.674Z,8.42
2022-10-01T01:59:19.577Z,8.39
2022-10-01T02:01:49.465Z,8.33
2022-10-01T02:04:22.179Z,8.39
2022-10-01T02:07:06.324Z,8.38
2022-10-01T02:09:36.563Z,8.45
2022-10-01T02:12:12.148Z,8.36
2022-10-01T02:14:47.367Z,8.43
2022-10-01T02:17:18.914Z,8.32
2022-10-01T02:19:52.016Z,8.38
2022-10-01T02:22:21.842Z,8.29
2022-10-01T02:24:53.515Z,8.34
2022-10-01T02:27:24.500Z,8.31
2022-10-01T02:29:52.153Z,8.29
2022-10-01T02:32:21.659Z,8.32
2022-10-01T02:34:51.091Z,8.34
2022-10-01T02:37:22.471Z,8.42
2022-10-01T02:39:50.446Z,8.46
2022-10-01T02:42:19.010Z,8.62
2022-10-01T02:44:48.172Z,8.55
2022-10-01T02:47:21.198Z,8.64
2022-10-01T02:49:49.041Z,8.49
2022-10-01T02:52:23.401Z,8.53
2022-10-01T02:54:54.700Z,8.52
2022-10-01T02:57:24.398Z,8.63
2022-10-01T02:59:52.328Z,8.66
2022-10-01T03:02:22.497Z,8.54
2022-10-01T03:04:50.074Z,8.59
2022-10-01T03:07:18.593Z,8.65
2022-10-01T03:09:46.206Z,8.67
2022-10-01T03:12:13.763Z,8.73
2022-10-01T03:14:41.471Z,8.77
2022-10-01T03:17:09.196Z,8.74
2022-10-01T03:19:38.160Z,8.85
2022-10-01T03:22:05.992Z,8.83
2022-10-01T03:24:33.574Z,8.88
2022-10-01T03:27:01.114Z,8.98
2022-10-01T03:29:28.653Z,9.06
2022-10-01T03:31:56.249Z,8.99
2022-10-01T03:34:24.114Z,9.05
2022-10-01T03:36:53.149Z,9.05
2022-10-01T03:39:20.831Z,9.11
2022-10-01T03:41:48.428Z,9.11
2022-10-01T03:44:15.915Z,9.24
2022-10-01T03:46:43.746Z,9.22
2022-10-01T03:49:11.455Z,9.11
2022-10-01T03:51:38.971Z,9.18
2022-10-01T03:54:09.083Z,9.17
2022-10-01T03:56:37.724Z,9.22
2022-10-01T03:59:05.291Z,9.16
2022-10-01T04:01:33.153Z,9.30
2022-10-01T04:04:01.272Z,9.18
2022-10-01T04:06:28.756Z,9.16
2022-10-01T04:08:56.238Z,9.17
2022-10-01T04:11:25.680Z,9.12
2022-10-01T04:13:53.129Z,9.17
2022-10-01T04:16:20.623Z,9.18
2022-10-01T04:18:48.216Z,9.21
2022-10-01T04:21:16.231Z,9.22
2022-10-01T04:23:43.796Z,9.16
2022-10-01T04:26:11.243Z,9.18
2022-10-01T04:28:40.036Z,9.17
2022-10-01T04:31:25.934Z,9.26
2022-10-01T04:33:53.940Z,9.27
2022-10-01T04:36:21.975Z,9.35
2022-10-01T04:38:51.968Z,9.29
2022-10-01T04:41:19.507Z,9.22
2022-10-01T04:43:48.461Z,9.27
2022-10-01T04:46:16.675Z,9.30
2022-10-01T04:48:44.181Z,9.32
2022-10-01T04:51:11.728Z,9.27
2022-10-01T04:53:39.247Z,9.23
2022-10-01T04:56:07.250Z,9.29
2022-10-01T04:58:34.908Z,9.23
2022-10-01T05:01:04.066Z,9.26
2022-10-01T05:03:31.599Z,9.25
2022-10-01T05:05:59.150Z,9.25
2022-10-01T05:08:27.073Z,9.31
2022-10-01T05:10:54.607Z,9.30
2022-10-01T05:13:22.213Z,9.38
2022-10-01T05:15:52.182Z,9.31
2022-10-01T05:18:21.210Z,9.26
2022-10-01T05:20:48.700Z,9.28
2022-10-01T05:23:16.193Z,9.27
2022-10-01T05:25:46.963Z,9.40
2022-10-01T05:28:18.452Z,9.29
2022-10-01T05:30:49.537Z,9.40
2022-10-01T05:33:17.005Z,9.38
2022-10-01T05:35:45.875Z,9.32
2022-10-01T05:38:13.847Z,9.32
2022-10-01T05:40:41.335Z,9.31
2022-10-01T05:43:08.873Z,9.33
2022-10-01T05:45:36.417Z,9.35
2022-10-01T05:48:05.699Z,9.38
2022-10-01T05:50:34.956Z,9.41
2022-10-01T05:53:03.908Z,9.39
2022-10-01T05:55:34.536Z,9.40
2022-10-01T05:58:06.909Z,9.40
2022-10-01T06:00:35.765Z,9.39
2022-10-01T06:03:04.413Z,9.33
2022-10-01T06:05:34.301Z,9.36
2022-10-01T06:08:02.599Z,9.39
2022-10-01T06:10:31.387Z,9.39
2022-10-01T06:13:00.229Z,9.41
2022-10-01T06:15:28.669Z,9.44
2022-10-01T06:17:56.338Z,9.40
2022-10-01T06:20:24.047Z,9.32
2022-10-01T06:22:55.727Z,9.33
2022-10-01T06:25:23.728Z,9.31
2022-10-01T06:27:55.351Z,9.38
2022-10-01T06:30:23.290Z,9.41
2022-10-01T06:32:50.869Z,9.40
2022-10-01T06:35:20.286Z,9.40
2022-10-01T06:37:47.931Z,9.49
2022-10-01T06:40:15.647Z,9.42
2022-10-01T06:42:48.272Z,9.42
2022-10-01T06:45:17.960Z,9.42
2022-10-01T06:47:45.844Z,9.53
2022-10-01T06:50:13.490Z,9.50
2022-10-01T06:52:49.929Z,9.45
2022-10-01T06:55:17.985Z,9.40
2022-10-01T06:57:45.893Z,9.47
2022-10-01T07:00:14.327Z,9.56
2022-10-01T07:02:43.379Z,9.48
2022-10-01T07:05:12.341Z,9.46
2022-10-01T07:07:40.084Z,9.54
2022-10-01T07:10:10.364Z,9.57
2022-10-01T07:12:38.612Z,9.58
2022-10-01T07:15:07.400Z,9.61
2022-10-01T07:17:35.259Z,9.58
2022-10-01T07:20:04.699Z,9.56
2022-10-01T07:22:32.367Z,9.59
2022-10-01T07:25:00.022Z,9.58
2022-10-01T07:27:27.697Z,9.66
2022-10-01T07:29:58.981Z,9.66
2022-10-01T07:32:27.068Z,9.66
2022-10-01T07:34:54.745Z,9.69
2022-10-01T07:37:24.023Z,9.66
2022-10-01T07:39:52.179Z,9.72
2022-10-01T07:42:21.477Z,9.73
2022-10-01T07:44:49.180Z,9.73
2022-10-01T07:47:16.899Z,9.69
2022-10-01T07:49:44.621Z,9.77
2022-10-01T07:52:13.530Z,9.84
2022-10-01T07:54:43.139Z,9.80
2022-10-01T07:57:10.785Z,9.76
2022-10-01T07:59:40.407Z,9.74
2022-10-01T08:02:13.859Z,9.74
2022-10-01T08:04:59.350Z,9.75
2022-10-01T08:07:27.082Z,9.78
2022-10-01T08:09:57.789Z,9.75
2022-10-01T08:12:30.291Z,9.76
2022-10-01T08:14:57.839Z,9.80
2022-10-01T08:17:29.390Z,9.81
2022-10-01T08:19:57.199Z,9.83
2022-10-01T08:22:24.800Z,9.84
2022-10-01T08:24:52.360Z,9.87
2022-10-01T08:27:21.206Z,9.84
2022-10-01T08:29:48.707Z,9.89
2022-10-01T08:32:16.314Z,9.82
2022-10-01T08:34:43.891Z,9.86
2022-10-01T08:37:11.423Z,9.84
2022-10-01T08:39:38.944Z,9.85
2022-10-01T08:42:11.340Z,9.95
2022-10-01T08:44:42.501Z,10.05
2022-10-01T08:47:15.844Z,10.03
2022-10-01T08:49:45.885Z,10.03
2022-10-01T08:52:17.673Z,10.08
2022-10-01T08:54:47.961Z,10.08
2022-10-01T08:57:16.917Z,10.06
2022-10-01T08:59:47.827Z,10.03
2022-10-01T09:02:20.794Z,10.10
2022-10-01T09:04:49.332Z,10.15
2022-10-01T09:07:28.532Z,10.10
2022-10-01T09:09:59.966Z,10.12
2022-10-01T09:12:33.110Z,10.14
2022-10-01T09:15:15.367Z,10.14
2022-10-01T09:17:54.445Z,10.10
2022-10-01T09:20:26.759Z,10.14
2022-10-01T09:23:06.191Z,10.15
2022-10-01T09:25:36.096Z,10.17
2022-10-01T09:28:11.368Z,10.34
2022-10-01T09:30:42.665Z,10.36
2022-10-01T09:33:13.813Z,10.45
2022-10-01T09:35:45.213Z,10.43
2022-10-01T09:38:18.438Z,10.36
2022-10-01T09:40:51.001Z,10.43
2022-10-01T09:43:21.844Z,10.35
2022-10-01T09:45:51.403Z,10.34
2022-10-01T09:48:25.955Z,10.40
2022-10-01T09:50:58.186Z,10.42
2022-10-01T09:53:32.097Z,10.45
2022-10-01T09:56:01.640Z,10.51
2022-10-01T09:58:29.970Z,10.56
2022-10-01T10:00:59.838Z,10.69
2022-10-01T10:03:30.794Z,10.62
2022-10-01T10:06:00.311Z,10.61
2022-10-01T10:08:29.754Z,10.60
2022-10-01T10:11:00.514Z,10.52
2022-10-01T10:13:34.791Z,10.56
2022-10-01T10:16:10.841Z,10.54
2022-10-01T10:18:40.143Z,10.54
2022-10-01T10:21:15.005Z,10.56
2022-10-01T10:23:51.157Z,10.71
2022-10-01T10:26:21.725Z,10.68
2022-10-01T10:28:49.634Z,10.71
2022-10-01T10:31:21.130Z,10.64
2022-10-01T10:33:54.066Z,10.62
2022-10-01T10:36:29.959Z,10.67
2022-10-01T10:38:58.433Z,10.71
2022-10-01T10:41:27.062Z,10.73
2022-10-01T10:44:00.513Z,10.78
2022-10-01T10:46:32.115Z,10.75
2022-10-01T10:49:05.109Z,10.76
2022-10-01T10:51:53.924Z,10.75
2022-10-01T10:54:25.141Z,10.79
2022-10-01T10:57:02.082Z,10.82
2022-10-01T10:59:32.626Z,10.88
2022-10-01T11:02:03.308Z,11.05
2022-10-01T11:04:39.103Z,11.07
2022-10-01T11:07:07.116Z,11.19
2022-10-01T11:09:45.887Z,11.15
2022-10-01T11:12:21.760Z,11.21
2022-10-01T11:14:59.722Z,11.25
2022-10-01T11:17:41.941Z,11.20
2022-10-01T11:20:22.237Z,11.33
2022-10-01T11:22:57.338Z,11.25
2022-10-01T11:25:34.716Z,11.34
2022-10-01T11:28:12.604Z,11.40
2022-10-01T11:30:47.048Z,11.32
2022-10-01T11:33:21.995Z,11.32
2022-10-01T11:35:56.085Z,11.30
2022-10-01T11:38:39.392Z,11.41
2022-10-01T11:41:18.987Z,11.47
2022-10-01T11:43:52.406Z,11.48
2022-10-01T11:46:32.081Z,11.48
2022-10-01T11:49:10.076Z,11.53
2022-10-01T11:51:42.290Z,11.59
2022-10-01T11:54:13.053Z,11.62
2022-10-01T11:57:01.248Z,11.72
2022-10-01T11:59:36.525Z,11.83
2022-10-01T12:02:10.258Z,11.85
2022-10-01T12:04:40.742Z,11.80
2022-10-01T12:07:12.364Z,11.98
2022-10-01T12:09:48.639Z,12.03
2022-10-01T12:12:19.702Z,12.07
2022-10-01T12:14:53.052Z,12.16
2022-10-01T12:17:24.813Z,12.22
2022-10-01T12:19:56.196Z,12.25
2022-10-01T12:22:25.633Z,12.33
2022-10-01T12:24:53.820Z,12.41
2022-10-01T12:27:34.821Z,12.58
2022-10-01T12:30:05.115Z,12.58
2022-10-01T12:32:42.108Z,12.60
2022-10-01T12:35:21.702Z,12.63
2022-10-01T12:38:00.826Z,12.69
2022-10-01T12:40:32.636Z,12.72
2022-10-01T12:43:28.506Z,12.73
2022-10-01T12:46:02.313Z,12.70
2022-10-01T12:48:33.018Z,12.80
2022-10-01T12:51:16.547Z,12.84
2022-10-01T12:53:47.532Z,12.91
2022-10-01T12:56:18.085Z,13.04
2022-10-01T12:58:56.145Z,13.13
2022-10-01T13:01:35.326Z,13.23
2022-10-01T13:04:19.921Z,13.37
2022-10-01T13:07:00.765Z,13.55
2022-10-01T13:09:34.598Z,13.73
2022-10-01T13:12:13.871Z,13.78
2022-10-01T13:14:44.373Z,13.90
2022-10-01T13:17:17.197Z,14.07
2022-10-01T13:19:48.795Z,14.14
2022-10-01T13:22:28.622Z,14.19
2022-10-01T13:25:01.595Z,14.15
2022-10-01T13:27:36.408Z,14.25
2022-10-01T13:30:07.578Z,14.21
2022-10-01T13:32:36.291Z,14.24
2022-10-01T13:35:24.113Z,14.27
2022-10-01T13:37:53.257Z,14.29
2022-10-01T13:40:24.857Z,14.30
2022-10-01T13:42:53.437Z,14.34
2022-10-01T13:45:28.509Z,14.32
2022-10-01T13:48:14.261Z,14.33
2022-10-01T13:50:43.262Z,14.39
2022-10-01T13:53:17.984Z,14.50
2022-10-01T13:55:47.781Z,14.66
2022-10-01T13:58:33.834Z,14.82
2022-10-01T14:01:02.967Z,15.02
2022-10-01T14:03:39.142Z,15.18
2022-10-01T14:06:09.202Z,15.20
2022-10-01T14:08:43.557Z,15.23
2022-10-01T14:11:29.476Z,15.30
2022-10-01T14:14:17.415Z,15.41
2022-10-01T14:16:47.003Z,15.31
2022-10-01T14:19:19.863Z,15.28
2022-10-01T14:21:56.679Z,15.24
2022-10-01T14:24:31.691Z,15.25
2022-10-01T14:27:02.176Z,15.38
2022-10-01T14:29:41.093Z,15.43
2022-10-01T14:32:18.612Z,15.49
2022-10-01T14:34:53.881Z,15.44
2022-10-01T14:37:21.752Z,15.28
2022-10-01T14:40:03.364Z,15.15
2022-10-01T14:42:31.069Z,15.10
2022-10-01T14:44:58.687Z,15.16
2022-10-01T14:47:27.889Z,15.19
2022-10-01T14:49:56.067Z,15.30
2022-10-01T14:52:25.567Z,15.35
2022-10-01T14:54:58.022Z,15.38
2022-10-01T14:57:30.459Z,15.40
2022-10-01T14:59:58.922Z,15.40
2022-10-01T15:02:27.410Z,15.39
2022-10-01T15:04:56.896Z,15.33
2022-10-01T15:07:26.000Z,15.21
2022-10-01T15:09:53.852Z,15.10
2022-10-01T15:12:23.338Z,15.10
2022-10-01T15:14:55.630Z,15.05
2022-10-01T15:17:25.950Z,15.04
2022-10-01T15:19:55.945Z,15.07
2022-10-01T15:22:26.461Z,15.01
2022-10-01T15:25:00.837Z,15.05
2022-10-01T15:27:28.924Z,15.10
2022-10-01T15:29:59.622Z,15.17
2022-10-01T15:32:28.879Z,15.28
2022-10-01T15:34:58.120Z,15.23
2022-10-01T15:37:28.552Z,15.26
2022-10-01T15:39:57.244Z,15.25
2022-10-01T15:42:26.811Z,15.33
2022-10-01T15:45:25.252Z,15.31
2022-10-01T15:47:56.939Z,15.27
2022-10-01T15:50:27.551Z,15.32
2022-10-01T15:53:03.593Z,15.28
2022-10-01T15:55:34.305Z,15.32
2022-10-01T15:58:07.847Z,15.33
2022-10-01T16:00:43.519Z,15.33
2022-10-01T16:03:24.022Z,15.22
2022-10-01T16:05:54.863Z,15.22
2022-10-01T16:08:26.122Z,15.18
2022-10-01T16:11:20.692Z,15.07
2022-10-01T16:13:49.797Z,15.00
2022-10-01T16:16:37.156Z,14.97
2022-10-01T16:19:23.063Z,14.96
2022-10-01T16:22:15.675Z,14.87
2022-10-01T16:24:45.167Z,14.81
2022-10-01T16:27:20.833Z,14.83
2022-10-01T16:29:54.184Z,14.78
2022-10-01T16:32:23.321Z,14.71
2022-10-01T16:34:52.764Z,14.78
2022-10-01T16:37:20.504Z,14.70
2022-10-01T16:39:48.202Z,14.72
2022-10-01T16:42:24.457Z,14.64
2022-10-01T16:44:52.677Z,14.62
2022-10-01T16:47:20.672Z,14.59
2022-10-01T16:49:52.525Z,14.63
2022-10-01T16:52:20.084Z,14.67
2022-10-01T16:54:48.124Z,14.65
2022-10-01T16:57:16.426Z,14.57
2022-10-01T16:59:44.278Z,14.55
2022-10-01T17:02:12.924Z,14.59
2022-10-01T17:04:41.013Z,14.51
2022-10-01T17:07:16.642Z,14.48
2022-10-01T17:09:47.179Z,14.46
2022-10-01T17:12:14.822Z,14.44
2022-10-01T17:14:42.774Z,14.45
2022-10-01T17:17:22.536Z,14.44
2022-10-01T17:19:50.246Z,14.41
2022-10-01T17:22:19.581Z,14.40
2022-10-01T17:24:47.611Z,14.44
2022-10-01T17:27:15.215Z,14.34
2022-10-01T17:29:42.906Z,14.42
2022-10-01T17:32:12.299Z,14.28
2022-10-01T17:34:43.047Z,14.31
2022-10-01T17:37:20.244Z,14.24
2022-10-01T17:39:49.813Z,14.22
2022-10-01T17:42:18.078Z,14.27
2022-10-01T17:44:46.168Z,14.23
2022-10-01T17:47:15.000Z,14.20
2022-10-01T17:49:55.896Z,14.22
2022-10-01T17:52:23.584Z,14.18
2022-10-01T17:54:52.718Z,14.07
2022-10-01T17:57:20.873Z,14.07
2022-10-01T17:59:48.535Z,13.99
2022-10-01T18:02:40.528Z,13.99
2022-10-01T18:05:09.276Z,14.00
2022-10-01T18:07:38.976Z,14.05
2022-10-01T18:10:10.167Z,13.97
2022-10-01T18:12:38.482Z,13.89
2022-10-01T18:15:06.943Z,13.84
2022-10-01T18:17:36.333Z,13.78
2022-10-01T18:20:05.444Z,13.80
2022-10-01T18:22:33.884Z,13.93
2022-10-01T18:25:03.468Z,13.82
2022-10-01T18:27:32.518Z,13.78
2022-10-01T18:30:00.175Z,13.78
2022-10-01T18:32:32.815Z,13.76
2022-10-01T18:35:01.748Z,13.75
2022-10-01T18:37:40.004Z,13.71
2022-10-01T18:40:12.005Z,13.73
2022-10-01T18:42:51.486Z,13.77
2022-10-01T18:45:34.243Z,13.76
2022-10-01T18:48:23.731Z,13.81
2022-10-01T18:50:57.473Z,13.66
2022-10-01T18:53:38.921Z,13.62
2022-10-01T18:56:26.376Z,13.57
2022-10-01T18:59:16.742Z,13.64
2022-10-01T19:01:53.689Z,13.63
2022-10-01T19:04:45.658Z,13.66
2022-10-01T19:07:23.279Z,13.69
2022-10-01T19:09:59.012Z,13.68
2022-10-01T19:12:36.963Z,13.55
2022-10-01T19:15:13.687Z,13.59
2022-10-01T19:18:06.751Z,13.60
2022-10-01T19:20:48.577Z,13.62
2022-10-01T19:23:39.410Z,13.66
2022-10-01T19:26:12.470Z,13.65
2022-10-01T19:28:50.320Z,13.59
2022-10-01T19:31:23.262Z,13.56
2022-10-01T19:33:56.915Z,13.56
2022-10-01T19:36:28.833Z,13.59
2022-10-01T19:39:02.030Z,13.49
2022-10-01T19:41:38.336Z,13.52
2022-10-01T19:44:11.163Z,13.49
2022-10-01T19:46:43.645Z,13.44
2022-10-01T19:49:17.084Z,13.36
2022-10-01T19:51:46.816Z,13.34
2022-10-01T19:54:16.958Z,13.37
2022-10-01T19:56:45.992Z,13.29
2022-10-01T19:59:15.386Z,13.30
2022-10-01T20:01:48.412Z,13.24
2022-10-01T20:04:21.211Z,13.23
2022-10-01T20:06:49.115Z,13.14
2022-10-01T20:09:23.221Z,13.08
2022-10-01T20:11:53.818Z,13.08
2022-10-01T20:14:44.779Z,13.02
2022-10-01T20:17:18.951Z,13.06
2022-10-01T20:19:51.777Z,13.03
2022-10-01T20:22:24.410Z,13.04
2022-10-01T20:24:56.781Z,13.09
2022-10-01T20:27:31.005Z,12.96
2022-10-01T20:30:04.413Z,12.95
2022-10-01T20:32:38.046Z,13.09
2022-10-01T20:35:17.426Z,12.97
2022-10-01T20:38:06.792Z,12.98
2022-10-01T20:40:39.294Z,12.96
2022-10-01T20:43:11.121Z,12.88
2022-10-01T20:45:40.740Z,13.02
2022-10-01T20:48:14.310Z,12.86
2022-10-01T20:50:44.922Z,12.87
2022-10-01T20:53:23.399Z,12.76
2022-10-01T20:55:53.774Z,12.83
2022-10-01T20:58:24.509Z,12.82
2022-10-01T21:00:55.420Z,12.75
2022-10-01T21:03:28.033Z,12.81
2022-10-01T21:05:58.241Z,12.82
2022-10-01T21:08:42.340Z,12.86
2022-10-01T21:11:14.454Z,12.81
2022-10-01T21:13:48.381Z,12.81
2022-10-01T21:16:34.863Z,12.83
2022-10-01T21:19:17.318Z,12.73
2022-10-01T21:21:55.384Z,12.77
2022-10-01T21:24:36.287Z,12.81
2022-10-01T21:27:17.243Z,12.80
2022-10-01T21:30:01.970Z,12.92
2022-10-01T21:32:51.159Z,12.93
2022-10-01T21:35:27.251Z,12.91
2022-10-01T21:38:03.787Z,12.91
2022-10-01T21:40:40.737Z,12.95
2022-10-01T21:43:15.689Z,12.96
2022-10-01T21:45:46.800Z,12.92
2022-10-01T21:48:23.433Z,13.02
2022-10-01T21:50:57.213Z,13.02
2022-10-01T21:53:57.301Z,12.99
2022-10-01T21:56:40.957Z,12.88
2022-10-01T21:59:22.313Z,12.80
2022-10-01T22:02:01.515Z,12.83
2022-10-01T22:04:35.512Z,12.86
2022-10-01T22:07:07.060Z,12.70
2022-10-01T22:09:38.531Z,12.76
2022-10-01T22:12:07.120Z,12.71
2022-10-01T22:14:37.459Z,12.71
2022-10-01T22:17:12.930Z,12.66
2022-10-01T22:19:45.755Z,12.66
2022-10-01T22:22:19.364Z,12.68
2022-10-01T22:24:48.898Z,12.58
2022-10-01T22:27:21.163Z,12.59
2022-10-01T22:29:52.461Z,12.44
2022-10-01T22:32:23.619Z,12.38
2022-10-01T22:34:55.015Z,12.35
2022-10-01T22:37:27.521Z,12.32
2022-10-01T22:39:58.900Z,12.35
2022-10-01T22:42:30.406Z,12.31
2022-10-01T22:45:01.386Z,12.33
2022-10-01T22:47:46.732Z,12.34
2022-10-01T22:50:27.273Z,12.41
2022-10-01T22:53:07.858Z,12.43
2022-10-01T22:55:41.279Z,12.38
2022-10-01T22:58:17.414Z,12.36
2022-10-01T23:00:52.846Z,12.37
2022-10-01T23:03:25.662Z,12.35
2022-10-01T23:06:00.537Z,12.41
2022-10-01T23:08:35.047Z,12.36
2022-10-01T23:11:12.797Z,12.42
2022-10-01T23:13:47.185Z,12.43
2022-10-01T23:16:19.876Z,12.48
2022-10-01T23:18:53.760Z,12.49
2022-10-01T23:21:32.583Z,12.57
2022-10-01T23:24:14.115Z,12.46
2022-10-01T23:26:47.692Z,12.51
2022-10-01T23:29:45.756Z,12.41
2022-10-01T23:32:19.420Z,12.36
2022-10-01T23:34:53.145Z,12.33
2022-10-01T23:37:36.026Z,12.26
2022-10-01T23:40:07.706Z,12.23
2022-10-01T23:42:38.074Z,12.19
2022-10-01T23:45:24.072Z,12.23
2022-10-01T23:47:58.333Z,12.23
2022-10-01T23:50:33.681Z,12.24
2022-10-01T23:53:06.113Z,12.20
2022-10-01T23:56:11.353Z,12.26
2022-10-01T23:58:46.211Z,12.26
